sensor_id;sensor_type;location;lat;lon;timestamp;temperature;humidity
18934;DHT22;9599;53.706;10.384;2022-11-20T00:01:04;2.60;99.90
18934;DHT22;9599;53.706;10.384;2022-11-20T00:03:32;2.50;99.90
18934;DHT22;9599;53.706;10.384;2022-11-20T00:06:02;2.50;99.90
18934;DHT22;9599;53.706;10.384;2022-11-20T00:08:30;2.40;99.90
18934;DHT22;9599;53.706;10.384;2022-11-20T00:11:02;2.40;99.90
18934;DHT22;9599;53.706;10.384;2022-11-20T00:13:30;2.40;99.90
18934;DHT22;9599;53.706;10.384;2022-11-20T00:15:59;2.30;99.90
18934;DHT22;9599;53.706;10.384;2022-11-20T00:18:27;2.30;99.90
18934;DHT22;9599;53.706;10.384;2022-11-20T00:21:02;2.30;99.90
18934;DHT22;9599;53.706;10.384;2022-11-20T00:23:30;2.30;99.90
18934;DHT22;9599;53.706;10.384;2022-11-20T00:26:01;2.30;99.90
18934;DHT22;9599;53.706;10.384;2022-11-20T00:28:29;2.30;99.90
18934;DHT22;9599;53.706;10.384;2022-11-20T00:31:01;2.30;99.90
18934;DHT22;9599;53.706;10.384;2022-11-20T00:33:29;2.30;99.90
18934;DHT22;9599;53.706;10.384;2022-11-20T00:36:03;2.30;99.90
18934;DHT22;9599;53.706;10.384;2022-11-20T00:38:31;2.20;99.90
18934;DHT22;9599;53.706;10.384;2022-11-20T00:41:01;2.30;99.90
18934;DHT22;9599;53.706;10.384;2022-11-20T00:43:29;2.30;99.90
18934;DHT22;9599;53.706;10.384;2022-11-20T00:45:58;2.30;99.90
18934;DHT22;9599;53.706;10.384;2022-11-20T00:48:26;2.30;99.90
18934;DHT22;9599;53.706;10.384;2022-11-20T00:50:54;2.30;99.90
18934;DHT22;9599;53.706;10.384;2022-11-20T00:53:24;2.40;99.90
18934;DHT22;9599;53.706;10.384;2022-11-20T00:55:54;2.40;99.90
18934;DHT22;9599;53.706;10.384;2022-11-20T00:58:22;2.40;99.90
18934;DHT22;9599;53.706;10.384;2022-11-20T01:00:50;2.40;99.90
18934;DHT22;9599;53.706;10.384;2022-11-20T01:03:18;2.50;99.90
18934;DHT22;9599;53.706;10.384;2022-11-20T01:05:52;2.40;99.90
18934;DHT22;9599;53.706;10.384;2022-11-20T01:08:20;2.50;99.90
18934;DHT22;9599;53.706;10.384;2022-11-20T01:10:49;2.50;99.90
18934;DHT22;9599;53.706;10.384;2022-11-20T01:13:17;2.50;99.90
18934;DHT22;9599;53.706;10.384;2022-11-20T01:16:03;2.50;99.90
18934;DHT22;9599;53.706;10.384;2022-11-20T01:18:31;2.40;99.90
18934;DHT22;9599;53.706;10.384;2022-11-20T01:21:04;2.40;99.90
18934;DHT22;9599;53.706;10.384;2022-11-20T01:23:33;2.40;99.90
18934;DHT22;9599;53.706;10.384;2022-11-20T01:26:04;2.30;99.90
18934;DHT22;9599;53.706;10.384;2022-11-20T01:28:33;2.40;99.90
18934;DHT22;9599;53.706;10.384;2022-11-20T01:31:01;2.40;99.90
18934;DHT22;9599;53.706;10.384;2022-11-20T01:33:29;2.40;99.90
18934;DHT22;9599;53.706;10.384;2022-11-20T01:36:04;2.40;99.90
18934;DHT22;9599;53.706;10.384;2022-11-20T01:38:32;2.40;99.90
18934;DHT22;9599;53.706;10.384;2022-11-20T01:41:00;2.40;99.90
18934;DHT22;9599;53.706;10.384;2022-11-20T01:43:29;2.40;99.90
18934;DHT22;9599;53.706;10.384;2022-11-20T01:45:59;2.40;99.90
18934;DHT22;9599;53.706;10.384;2022-11-20T01:48:32;2.40;99.90
18934;DHT22;9599;53.706;10.384;2022-11-20T01:51:02;2.40;99.90
18934;DHT22;9599;53.706;10.384;2022-11-20T01:53:33;2.40;99.90
18934;DHT22;9599;53.706;10.384;2022-11-20T01:56:06;2.40;99.90
18934;DHT22;9599;53.706;10.384;2022-11-20T01:58:39;2.30;99.90
18934;DHT22;9599;53.706;10.384;2022-11-20T02:01:10;2.40;99.90
18934;DHT22;9599;53.706;10.384;2022-11-20T02:03:38;2.40;99.90
18934;DHT22;9599;53.706;10.384;2022-11-20T02:06:11;2.40;99.90
18934;DHT22;9599;53.706;10.384;2022-11-20T02:08:40;2.40;99.90
18934;DHT22;9599;53.706;10.384;2022-11-20T02:11:08;2.40;99.90
18934;DHT22;9599;53.706;10.384;2022-11-20T02:13:37;2.30;99.90
18934;DHT22;9599;53.706;10.384;2022-11-20T02:16:20;2.30;99.90
18934;DHT22;9599;53.706;10.384;2022-11-20T02:18:49;2.20;99.90
18934;DHT22;9599;53.706;10.384;2022-11-20T02:21:24;2.20;99.90
18934;DHT22;9599;53.706;10.384;2022-11-20T02:23:59;2.30;99.90
18934;DHT22;9599;53.706;10.384;2022-11-20T02:26:29;2.30;99.90
18934;DHT22;9599;53.706;10.384;2022-11-20T02:28:58;2.30;99.90
18934;DHT22;9599;53.706;10.384;2022-11-20T02:31:27;2.30;99.90
18934;DHT22;9599;53.706;10.384;2022-11-20T02:33:56;2.40;99.90
18934;DHT22;9599;53.706;10.384;2022-11-20T02:36:26;2.30;99.90
18934;DHT22;9599;53.706;10.384;2022-11-20T02:38:54;2.40;99.90
18934;DHT22;9599;53.706;10.384;2022-11-20T02:41:32;2.40;99.90
18934;DHT22;9599;53.706;10.384;2022-11-20T02:44:00;2.30;99.90
18934;DHT22;9599;53.706;10.384;2022-11-20T02:46:28;2.30;99.90
18934;DHT22;9599;53.706;10.384;2022-11-20T02:48:56;2.20;99.90
18934;DHT22;9599;53.706;10.384;2022-11-20T02:51:24;2.20;99.90
18934;DHT22;9599;53.706;10.384;2022-11-20T02:53:52;2.30;99.90
18934;DHT22;9599;53.706;10.384;2022-11-20T02:56:20;2.30;99.90
18934;DHT22;9599;53.706;10.384;2022-11-20T02:58:49;2.30;99.90
18934;DHT22;9599;53.706;10.384;2022-11-20T03:01:17;2.20;99.90
18934;DHT22;9599;53.706;10.384;2022-11-20T03:03:45;2.20;99.90
18934;DHT22;9599;53.706;10.384;2022-11-20T03:06:15;2.10;99.90
18934;DHT22;9599;53.706;10.384;2022-11-20T03:08:43;2.10;99.90
18934;DHT22;9599;53.706;10.384;2022-11-20T03:11:11;2.10;99.90
18934;DHT22;9599;53.706;10.384;2022-11-20T03:13:39;2.10;99.90
18934;DHT22;9599;53.706;10.384;2022-11-20T03:16:10;2.10;99.90
18934;DHT22;9599;53.706;10.384;2022-11-20T03:18:39;2.10;99.90
18934;DHT22;9599;53.706;10.384;2022-11-20T03:21:09;2.10;99.90
18934;DHT22;9599;53.706;10.384;2022-11-20T03:23:37;2.10;99.90
18934;DHT22;9599;53.706;10.384;2022-11-20T03:26:14;2.10;99.90
18934;DHT22;9599;53.706;10.384;2022-11-20T03:28:47;2.00;99.90
18934;DHT22;9599;53.706;10.384;2022-11-20T03:31:17;2.10;99.90
18934;DHT22;9599;53.706;10.384;2022-11-20T03:33:46;2.20;99.90
18934;DHT22;9599;53.706;10.384;2022-11-20T03:36:15;2.20;99.90
18934;DHT22;9599;53.706;10.384;2022-11-20T03:38:43;2.20;99.90
18934;DHT22;9599;53.706;10.384;2022-11-20T03:41:12;2.20;99.90
18934;DHT22;9599;53.706;10.384;2022-11-20T03:43:41;2.20;99.90
18934;DHT22;9599;53.706;10.384;2022-11-20T03:46:09;2.20;99.90
18934;DHT22;9599;53.706;10.384;2022-11-20T03:48:38;2.20;99.90
18934;DHT22;9599;53.706;10.384;2022-11-20T03:51:07;2.20;99.90
18934;DHT22;9599;53.706;10.384;2022-11-20T03:53:35;2.10;99.90
18934;DHT22;9599;53.706;10.384;2022-11-20T03:56:04;2.10;99.90
18934;DHT22;9599;53.706;10.384;2022-11-20T03:58:32;2.00;99.90
18934;DHT22;9599;53.706;10.384;2022-11-20T04:01:05;2.10;99.90
18934;DHT22;9599;53.706;10.384;2022-11-20T04:03:34;2.00;99.90
18934;DHT22;9599;53.706;10.384;2022-11-20T04:06:05;1.90;99.90
18934;DHT22;9599;53.706;10.384;2022-11-20T04:08:33;2.00;99.90
18934;DHT22;9599;53.706;10.384;2022-11-20T04:11:12;2.00;99.90
18934;DHT22;9599;53.706;10.384;2022-11-20T04:13:40;2.10;99.90
18934;DHT22;9599;53.706;10.384;2022-11-20T04:16:09;2.10;99.90
18934;DHT22;9599;53.706;10.384;2022-11-20T04:18:37;2.10;99.90
18934;DHT22;9599;53.706;10.384;2022-11-20T04:21:07;2.10;99.90
18934;DHT22;9599;53.706;10.384;2022-11-20T04:23:35;2.10;99.90
18934;DHT22;9599;53.706;10.384;2022-11-20T04:26:03;2.10;99.90
18934;DHT22;9599;53.706;10.384;2022-11-20T04:28:32;2.10;99.90
18934;DHT22;9599;53.706;10.384;2022-11-20T04:31:04;2.10;99.90
18934;DHT22;9599;53.706;10.384;2022-11-20T04:33:32;2.00;99.90
18934;DHT22;9599;53.706;10.384;2022-11-20T04:36:04;2.00;99.90
18934;DHT22;9599;53.706;10.384;2022-11-20T04:38:34;2.00;99.90
18934;DHT22;9599;53.706;10.384;2022-11-20T04:41:04;2.00;99.90
18934;DHT22;9599;53.706;10.384;2022-11-20T04:43:32;1.90;99.90
18934;DHT22;9599;53.706;10.384;2022-11-20T04:46:01;2.00;99.90
18934;DHT22;9599;53.706;10.384;2022-11-20T04:48:29;1.90;99.90
18934;DHT22;9599;53.706;10.384;2022-11-20T04:50:57;1.90;99.90
18934;DHT22;9599;53.706;10.384;2022-11-20T04:53:25;1.90;99.90
18934;DHT22;9599;53.706;10.384;2022-11-20T04:56:00;2.00;99.90
18934;DHT22;9599;53.706;10.384;2022-11-20T04:58:28;2.00;99.90
18934;DHT22;9599;53.706;10.384;2022-11-20T05:01:01;2.00;99.90
18934;DHT22;9599;53.706;10.384;2022-11-20T05:03:30;2.10;99.90
18934;DHT22;9599;53.706;10.384;2022-11-20T05:06:00;2.10;99.90
18934;DHT22;9599;53.706;10.384;2022-11-20T05:08:28;2.00;99.90
18934;DHT22;9599;53.706;10.384;2022-11-20T05:11:01;2.00;99.90
18934;DHT22;9599;53.706;10.384;2022-11-20T05:13:29;2.10;99.90
18934;DHT22;9599;53.706;10.384;2022-11-20T05:16:01;2.10;99.90
18934;DHT22;9599;53.706;10.384;2022-11-20T05:18:29;2.10;99.90
18934;DHT22;9599;53.706;10.384;2022-11-20T05:20:57;2.10;99.90
18934;DHT22;9599;53.706;10.384;2022-11-20T05:23:26;2.10;99.90
18934;DHT22;9599;53.706;10.384;2022-11-20T05:25:55;2.10;99.90
18934;DHT22;9599;53.706;10.384;2022-11-20T05:28:27;2.10;99.90
18934;DHT22;9599;53.706;10.384;2022-11-20T05:30:55;2.00;99.90
18934;DHT22;9599;53.706;10.384;2022-11-20T05:33:24;2.10;99.90
18934;DHT22;9599;53.706;10.384;2022-11-20T05:35:51;2.00;99.90
18934;DHT22;9599;53.706;10.384;2022-11-20T05:38:19;2.00;99.90
18934;DHT22;9599;53.706;10.384;2022-11-20T05:40:47;2.10;99.90
18934;DHT22;9599;53.706;10.384;2022-11-20T05:43:15;2.00;99.90
18934;DHT22;9599;53.706;10.384;2022-11-20T05:45:51;2.00;99.90
18934;DHT22;9599;53.706;10.384;2022-11-20T05:48:20;2.00;99.90
18934;DHT22;9599;53.706;10.384;2022-11-20T05:50:48;2.00;99.90
18934;DHT22;9599;53.706;10.384;2022-11-20T05:53:16;2.00;99.90
18934;DHT22;9599;53.706;10.384;2022-11-20T05:55:44;2.00;99.90
18934;DHT22;9599;53.706;10.384;2022-11-20T05:58:12;2.00;99.90
18934;DHT22;9599;53.706;10.384;2022-11-20T06:00:39;2.10;99.90
18934;DHT22;9599;53.706;10.384;2022-11-20T06:03:09;2.10;99.90
18934;DHT22;9599;53.706;10.384;2022-11-20T06:05:37;2.00;99.90
18934;DHT22;9599;53.706;10.384;2022-11-20T06:08:04;2.10;99.90
18934;DHT22;9599;53.706;10.384;2022-11-20T06:10:32;2.10;99.90
18934;DHT22;9599;53.706;10.384;2022-11-20T06:13:00;2.10;99.90
18934;DHT22;9599;53.706;10.384;2022-11-20T06:15:28;2.10;99.90
18934;DHT22;9599;53.706;10.384;2022-11-20T06:17:56;2.10;99.90
18934;DHT22;9599;53.706;10.384;2022-11-20T06:20:26;2.10;99.90
18934;DHT22;9599;53.706;10.384;2022-11-20T06:22:54;2.10;99.90
18934;DHT22;9599;53.706;10.384;2022-11-20T06:25:22;2.10;99.90
18934;DHT22;9599;53.706;10.384;2022-11-20T06:27:50;2.00;99.90
18934;DHT22;9599;53.706;10.384;2022-11-20T06:30:19;2.10;99.90
18934;DHT22;9599;53.706;10.384;2022-11-20T06:32:47;2.10;99.90
18934;DHT22;9599;53.706;10.384;2022-11-20T06:35:15;2.00;99.90
18934;DHT22;9599;53.706;10.384;2022-11-20T06:37:44;2.00;99.90
18934;DHT22;9599;53.706;10.384;2022-11-20T06:40:12;2.00;99.90
18934;DHT22;9599;53.706;10.384;2022-11-20T06:42:40;2.00;99.90
18934;DHT22;9599;53.706;10.384;2022-11-20T06:45:09;2.00;99.90
18934;DHT22;9599;53.706;10.384;2022-11-20T06:47:37;2.00;99.90
18934;DHT22;9599;53.706;10.384;2022-11-20T06:50:05;2.00;99.90
18934;DHT22;9599;53.706;10.384;2022-11-20T06:52:33;2.10;99.90
18934;DHT22;9599;53.706;10.384;2022-11-20T06:55:10;2.10;99.90
18934;DHT22;9599;53.706;10.384;2022-11-20T06:57:38;2.00;99.90
18934;DHT22;9599;53.706;10.384;2022-11-20T07:00:07;2.00;99.90
18934;DHT22;9599;53.706;10.384;2022-11-20T07:02:35;2.10;99.90
18934;DHT22;9599;53.706;10.384;2022-11-20T07:05:03;2.00;99.90
18934;DHT22;9599;53.706;10.384;2022-11-20T07:07:31;2.00;99.90
18934;DHT22;9599;53.706;10.384;2022-11-20T07:09:59;2.10;99.90
18934;DHT22;9599;53.706;10.384;2022-11-20T07:12:28;2.10;99.90
18934;DHT22;9599;53.706;10.384;2022-11-20T07:14:56;2.10;99.90
18934;DHT22;9599;53.706;10.384;2022-11-20T07:17:24;2.20;99.90
18934;DHT22;9599;53.706;10.384;2022-11-20T07:19:52;2.20;99.90
18934;DHT22;9599;53.706;10.384;2022-11-20T07:22:20;2.20;99.90
18934;DHT22;9599;53.706;10.384;2022-11-20T07:24:48;2.20;99.90
18934;DHT22;9599;53.706;10.384;2022-11-20T07:27:16;2.20;99.90
18934;DHT22;9599;53.706;10.384;2022-11-20T07:29:45;2.20;99.90
18934;DHT22;9599;53.706;10.384;2022-11-20T07:32:13;2.10;99.90
18934;DHT22;9599;53.706;10.384;2022-11-20T07:34:40;2.10;99.90
18934;DHT22;9599;53.706;10.384;2022-11-20T07:37:08;2.10;99.90
18934;DHT22;9599;53.706;10.384;2022-11-20T07:39:36;2.10;99.90
18934;DHT22;9599;53.706;10.384;2022-11-20T07:42:05;2.10;99.90
18934;DHT22;9599;53.706;10.384;2022-11-20T07:44:36;2.00;99.90
18934;DHT22;9599;53.706;10.384;2022-11-20T07:47:05;2.10;99.90
18934;DHT22;9599;53.706;10.384;2022-11-20T07:49:33;2.10;99.90
18934;DHT22;9599;53.706;10.384;2022-11-20T07:52:01;2.10;99.90
18934;DHT22;9599;53.706;10.384;2022-11-20T07:54:31;2.20;99.90
18934;DHT22;9599;53.706;10.384;2022-11-20T07:56:59;2.10;99.90
18934;DHT22;9599;53.706;10.384;2022-11-20T07:59:27;2.10;99.90
18934;DHT22;9599;53.706;10.384;2022-11-20T08:01:54;2.10;99.90
18934;DHT22;9599;53.706;10.384;2022-11-20T08:04:24;2.20;99.90
18934;DHT22;9599;53.706;10.384;2022-11-20T08:06:52;2.20;99.90
18934;DHT22;9599;53.706;10.384;2022-11-20T08:09:20;2.20;99.90
18934;DHT22;9599;53.706;10.384;2022-11-20T08:11:48;2.20;99.90
18934;DHT22;9599;53.706;10.384;2022-11-20T08:14:34;2.20;99.90
18934;DHT22;9599;53.706;10.384;2022-11-20T08:17:02;2.20;99.90
18934;DHT22;9599;53.706;10.384;2022-11-20T08:19:31;2.20;99.90
18934;DHT22;9599;53.706;10.384;2022-11-20T08:21:59;2.10;99.90
18934;DHT22;9599;53.706;10.384;2022-11-20T08:24:27;2.20;99.90
18934;DHT22;9599;53.706;10.384;2022-11-20T08:26:57;2.10;99.90
18934;DHT22;9599;53.706;10.384;2022-11-20T08:29:26;2.10;99.90
18934;DHT22;9599;53.706;10.384;2022-11-20T08:31:54;2.00;99.90
18934;DHT22;9599;53.706;10.384;2022-11-20T08:34:21;2.00;99.90
18934;DHT22;9599;53.706;10.384;2022-11-20T08:36:51;2.00;99.90
18934;DHT22;9599;53.706;10.384;2022-11-20T08:39:18;2.10;99.90
18934;DHT22;9599;53.706;10.384;2022-11-20T08:41:47;2.10;99.90
18934;DHT22;9599;53.706;10.384;2022-11-20T08:44:15;2.20;99.90
18934;DHT22;9599;53.706;10.384;2022-11-20T08:46:42;2.20;99.90
18934;DHT22;9599;53.706;10.384;2022-11-20T08:49:13;2.30;99.90
18934;DHT22;9599;53.706;10.384;2022-11-20T08:51:42;2.30;99.90
18934;DHT22;9599;53.706;10.384;2022-11-20T08:54:11;2.30;99.90
18934;DHT22;9599;53.706;10.384;2022-11-20T08:56:40;2.30;99.90
18934;DHT22;9599;53.706;10.384;2022-11-20T08:59:07;2.20;99.90
18934;DHT22;9599;53.706;10.384;2022-11-20T09:01:55;2.30;99.90
18934;DHT22;9599;53.706;10.384;2022-11-20T09:04:23;2.30;99.90
18934;DHT22;9599;53.706;10.384;2022-11-20T09:06:51;2.30;99.90
18934;DHT22;9599;53.706;10.384;2022-11-20T09:09:20;2.30;99.90
18934;DHT22;9599;53.706;10.384;2022-11-20T09:11:49;2.30;99.90
18934;DHT22;9599;53.706;10.384;2022-11-20T09:14:17;2.30;99.90
18934;DHT22;9599;53.706;10.384;2022-11-20T09:16:45;2.20;99.90
18934;DHT22;9599;53.706;10.384;2022-11-20T09:19:13;2.10;99.90
18934;DHT22;9599;53.706;10.384;2022-11-20T09:22:02;2.10;99.90
18934;DHT22;9599;53.706;10.384;2022-11-20T09:24:31;2.10;99.90
18934;DHT22;9599;53.706;10.384;2022-11-20T09:27:02;2.10;99.90
18934;DHT22;9599;53.706;10.384;2022-11-20T09:29:30;2.10;99.90
18934;DHT22;9599;53.706;10.384;2022-11-20T09:31:58;2.00;99.90
18934;DHT22;9599;53.706;10.384;2022-11-20T09:34:26;2.10;99.90
18934;DHT22;9599;53.706;10.384;2022-11-20T09:36:54;2.10;99.90
18934;DHT22;9599;53.706;10.384;2022-11-20T09:39:22;2.10;99.90
18934;DHT22;9599;53.706;10.384;2022-11-20T09:42:05;2.10;99.90
18934;DHT22;9599;53.706;10.384;2022-11-20T09:44:49;2.10;99.90
18934;DHT22;9599;53.706;10.384;2022-11-20T09:47:26;2.20;99.90
18934;DHT22;9599;53.706;10.384;2022-11-20T09:50:10;2.20;99.90
18934;DHT22;9599;53.706;10.384;2022-11-20T09:52:47;2.30;99.90
18934;DHT22;9599;53.706;10.384;2022-11-20T09:55:18;2.30;99.90
18934;DHT22;9599;53.706;10.384;2022-11-20T09:57:48;2.30;99.90
18934;DHT22;9599;53.706;10.384;2022-11-20T10:00:19;2.20;99.90
18934;DHT22;9599;53.706;10.384;2022-11-20T10:02:50;2.20;99.90
18934;DHT22;9599;53.706;10.384;2022-11-20T10:05:24;2.20;99.90
18934;DHT22;9599;53.706;10.384;2022-11-20T10:07:58;2.20;99.90
18934;DHT22;9599;53.706;10.384;2022-11-20T10:10:35;2.20;99.90
18934;DHT22;9599;53.706;10.384;2022-11-20T10:13:24;2.30;99.90
18934;DHT22;9599;53.706;10.384;2022-11-20T10:16:05;2.30;99.90
18934;DHT22;9599;53.706;10.384;2022-11-20T10:18:43;2.30;99.90
18934;DHT22;9599;53.706;10.384;2022-11-20T10:21:23;2.30;99.90
18934;DHT22;9599;53.706;10.384;2022-11-20T10:27:39;2.30;99.90
18934;DHT22;9599;53.706;10.384;2022-11-20T10:30:13;2.30;99.90
18934;DHT22;9599;53.706;10.384;2022-11-20T10:32:43;2.20;99.90
18934;DHT22;9599;53.706;10.384;2022-11-20T10:35:20;2.20;99.90
18934;DHT22;9599;53.706;10.384;2022-11-20T10:37:53;2.10;99.90
18934;DHT22;9599;53.706;10.384;2022-11-20T10:40:27;2.20;99.90
18934;DHT22;9599;53.706;10.384;2022-11-20T10:42:59;2.20;99.90
18934;DHT22;9599;53.706;10.384;2022-11-20T10:45:36;2.40;99.90
18934;DHT22;9599;53.706;10.384;2022-11-20T10:48:16;2.30;99.90
18934;DHT22;9599;53.706;10.384;2022-11-20T10:51:15;2.40;99.90
18934;DHT22;9599;53.706;10.384;2022-11-20T10:53:54;2.80;99.90
18934;DHT22;9599;53.706;10.384;2022-11-20T10:56:26;2.70;99.90
18934;DHT22;9599;53.706;10.384;2022-11-20T10:59:20;2.60;99.90
18934;DHT22;9599;53.706;10.384;2022-11-20T11:01:53;2.70;99.90
18934;DHT22;9599;53.706;10.384;2022-11-20T11:04:33;2.60;99.90
18934;DHT22;9599;53.706;10.384;2022-11-20T11:07:08;2.70;99.90
18934;DHT22;9599;53.706;10.384;2022-11-20T11:09:41;2.80;99.90
18934;DHT22;9599;53.706;10.384;2022-11-20T11:12:10;2.80;99.90
18934;DHT22;9599;53.706;10.384;2022-11-20T11:14:43;2.80;99.90
18934;DHT22;9599;53.706;10.384;2022-11-20T11:17:27;2.90;99.90
18934;DHT22;9599;53.706;10.384;2022-11-20T11:20:03;2.80;99.90
18934;DHT22;9599;53.706;10.384;2022-11-20T11:22:33;2.80;99.90
18934;DHT22;9599;53.706;10.384;2022-11-20T11:25:02;2.80;99.90
18934;DHT22;9599;53.706;10.384;2022-11-20T11:27:30;2.80;99.90
18934;DHT22;9599;53.706;10.384;2022-11-20T11:30:14;2.80;99.90
18934;DHT22;9599;53.706;10.384;2022-11-20T11:32:43;2.80;99.90
18934;DHT22;9599;53.706;10.384;2022-11-20T11:35:23;2.70;99.90
18934;DHT22;9599;53.706;10.384;2022-11-20T11:37:54;2.80;99.90
18934;DHT22;9599;53.706;10.384;2022-11-20T11:40:31;2.80;99.90
18934;DHT22;9599;53.706;10.384;2022-11-20T11:43:02;3.00;99.90
18934;DHT22;9599;53.706;10.384;2022-11-20T11:45:32;3.10;99.90
18934;DHT22;9599;53.706;10.384;2022-11-20T11:48:01;3.00;99.90
18934;DHT22;9599;53.706;10.384;2022-11-20T11:50:30;3.10;99.90
18934;DHT22;9599;53.706;10.384;2022-11-20T11:53:07;3.10;99.90
18934;DHT22;9599;53.706;10.384;2022-11-20T11:55:40;3.10;99.90
18934;DHT22;9599;53.706;10.384;2022-11-20T11:58:17;3.00;99.90
18934;DHT22;9599;53.706;10.384;2022-11-20T12:00:53;2.90;99.90
18934;DHT22;9599;53.706;10.384;2022-11-20T12:03:27;2.90;99.90
18934;DHT22;9599;53.706;10.384;2022-11-20T12:05:58;2.90;99.90
18934;DHT22;9599;53.706;10.384;2022-11-20T12:08:31;2.90;99.90
18934;DHT22;9599;53.706;10.384;2022-11-20T12:11:04;3.00;99.90
18934;DHT22;9599;53.706;10.384;2022-11-20T12:13:42;3.00;99.90
18934;DHT22;9599;53.706;10.384;2022-11-20T12:16:13;3.20;99.90
18934;DHT22;9599;53.706;10.384;2022-11-20T12:18:43;3.20;99.90
18934;DHT22;9599;53.706;10.384;2022-11-20T12:21:18;3.20;99.90
18934;DHT22;9599;53.706;10.384;2022-11-20T12:24:11;3.10;99.90
18934;DHT22;9599;53.706;10.384;2022-11-20T12:26:56;3.10;99.90
18934;DHT22;9599;53.706;10.384;2022-11-20T12:29:35;3.20;99.90
18934;DHT22;9599;53.706;10.384;2022-11-20T12:35:30;3.30;99.90
18934;DHT22;9599;53.706;10.384;2022-11-20T12:38:16;3.30;99.90
18934;DHT22;9599;53.706;10.384;2022-11-20T12:40:55;3.30;99.90
18934;DHT22;9599;53.706;10.384;2022-11-20T12:43:29;3.40;99.90
18934;DHT22;9599;53.706;10.384;2022-11-20T12:46:24;3.30;99.90
18934;DHT22;9599;53.706;10.384;2022-11-20T12:49:23;3.70;99.90
18934;DHT22;9599;53.706;10.384;2022-11-20T12:52:11;3.50;99.90
18934;DHT22;9599;53.706;10.384;2022-11-20T12:55:04;3.50;99.90
18934;DHT22;9599;53.706;10.384;2022-11-20T12:57:41;3.50;99.90
18934;DHT22;9599;53.706;10.384;2022-11-20T13:00:14;3.40;99.90
18934;DHT22;9599;53.706;10.384;2022-11-20T13:03:05;3.40;99.90
18934;DHT22;9599;53.706;10.384;2022-11-20T13:05:43;3.50;99.90
18934;DHT22;9599;53.706;10.384;2022-11-20T13:08:20;3.50;99.90
18934;DHT22;9599;53.706;10.384;2022-11-20T13:10:54;3.50;99.90
18934;DHT22;9599;53.706;10.384;2022-11-20T13:13:29;3.50;99.90
18934;DHT22;9599;53.706;10.384;2022-11-20T13:16:01;3.50;99.90
18934;DHT22;9599;53.706;10.384;2022-11-20T13:18:37;3.70;99.90
18934;DHT22;9599;53.706;10.384;2022-11-20T13:21:35;3.70;99.90
18934;DHT22;9599;53.706;10.384;2022-11-20T13:24:21;3.60;99.90
18934;DHT22;9599;53.706;10.384;2022-11-20T13:27:00;3.40;99.90
18934;DHT22;9599;53.706;10.384;2022-11-20T13:29:28;3.40;99.90
18934;DHT22;9599;53.706;10.384;2022-11-20T13:32:05;3.60;99.90
18934;DHT22;9599;53.706;10.384;2022-11-20T13:34:34;3.60;99.90
18934;DHT22;9599;53.706;10.384;2022-11-20T13:37:02;3.50;99.90
18934;DHT22;9599;53.706;10.384;2022-11-20T13:39:34;3.50;99.90
18934;DHT22;9599;53.706;10.384;2022-11-20T13:42:20;3.50;99.90
18934;DHT22;9599;53.706;10.384;2022-11-20T13:44:54;3.50;99.90
18934;DHT22;9599;53.706;10.384;2022-11-20T13:47:23;3.60;99.90
18934;DHT22;9599;53.706;10.384;2022-11-20T13:49:53;3.70;99.90
18934;DHT22;9599;53.706;10.384;2022-11-20T13:52:39;3.60;99.90
18934;DHT22;9599;53.706;10.384;2022-11-20T13:55:18;3.50;99.90
18934;DHT22;9599;53.706;10.384;2022-11-20T14:00:44;3.60;99.90
18934;DHT22;9599;53.706;10.384;2022-11-20T14:03:17;3.60;99.90
18934;DHT22;9599;53.706;10.384;2022-11-20T14:06:12;3.40;99.90
18934;DHT22;9599;53.706;10.384;2022-11-20T14:08:43;3.50;99.90
18934;DHT22;9599;53.706;10.384;2022-11-20T14:11:16;3.50;99.90
18934;DHT22;9599;53.706;10.384;2022-11-20T14:13:59;3.40;99.90
18934;DHT22;9599;53.706;10.384;2022-11-20T14:16:29;3.30;99.90
18934;DHT22;9599;53.706;10.384;2022-11-20T14:19:16;3.40;99.90
18934;DHT22;9599;53.706;10.384;2022-11-20T14:21:46;3.40;99.90
18934;DHT22;9599;53.706;10.384;2022-11-20T14:24:19;3.40;99.90
18934;DHT22;9599;53.706;10.384;2022-11-20T14:26:50;3.40;99.90
18934;DHT22;9599;53.706;10.384;2022-11-20T14:29:22;3.50;99.90
18934;DHT22;9599;53.706;10.384;2022-11-20T14:31:52;3.40;99.90
18934;DHT22;9599;53.706;10.384;2022-11-20T14:34:23;3.50;99.90
18934;DHT22;9599;53.706;10.384;2022-11-20T14:36:55;3.50;99.90
18934;DHT22;9599;53.706;10.384;2022-11-20T14:39:29;3.50;99.90
18934;DHT22;9599;53.706;10.384;2022-11-20T14:41:59;3.50;99.90
18934;DHT22;9599;53.706;10.384;2022-11-20T14:44:30;3.50;99.90
18934;DHT22;9599;53.706;10.384;2022-11-20T14:47:00;3.50;99.90
18934;DHT22;9599;53.706;10.384;2022-11-20T14:49:30;3.40;99.90
18934;DHT22;9599;53.706;10.384;2022-11-20T14:52:00;3.40;99.90
18934;DHT22;9599;53.706;10.384;2022-11-20T14:54:28;3.40;99.90
18934;DHT22;9599;53.706;10.384;2022-11-20T14:57:00;3.40;99.90
18934;DHT22;9599;53.706;10.384;2022-11-20T14:59:29;3.40;99.90
18934;DHT22;9599;53.706;10.384;2022-11-20T15:02:01;3.40;99.90
18934;DHT22;9599;53.706;10.384;2022-11-20T15:04:29;3.40;99.90
18934;DHT22;9599;53.706;10.384;2022-11-20T15:07:00;3.30;99.90
18934;DHT22;9599;53.706;10.384;2022-11-20T15:09:28;3.40;99.90
18934;DHT22;9599;53.706;10.384;2022-11-20T15:11:58;3.20;99.90
18934;DHT22;9599;53.706;10.384;2022-11-20T15:14:29;3.10;99.90
18934;DHT22;9599;53.706;10.384;2022-11-20T15:16:59;3.10;99.90
18934;DHT22;9599;53.706;10.384;2022-11-20T15:19:27;3.10;99.90
18934;DHT22;9599;53.706;10.384;2022-11-20T15:21:55;3.10;99.90
18934;DHT22;9599;53.706;10.384;2022-11-20T15:24:23;3.10;99.90
18934;DHT22;9599;53.706;10.384;2022-11-20T15:26:51;3.00;99.90
18934;DHT22;9599;53.706;10.384;2022-11-20T15:29:20;2.90;99.90
18934;DHT22;9599;53.706;10.384;2022-11-20T15:31:50;2.90;99.90
18934;DHT22;9599;53.706;10.384;2022-11-20T15:34:20;3.00;99.90
18934;DHT22;9599;53.706;10.384;2022-11-20T15:36:48;3.00;99.90
18934;DHT22;9599;53.706;10.384;2022-11-20T15:39:16;3.10;99.90
18934;DHT22;9599;53.706;10.384;2022-11-20T15:41:44;3.10;99.90
18934;DHT22;9599;53.706;10.384;2022-11-20T15:44:12;3.20;99.90
18934;DHT22;9599;53.706;10.384;2022-11-20T15:46:41;3.20;99.90
18934;DHT22;9599;53.706;10.384;2022-11-20T15:49:14;3.20;99.90
18934;DHT22;9599;53.706;10.384;2022-11-20T15:51:44;3.20;99.90
18934;DHT22;9599;53.706;10.384;2022-11-20T15:54:15;3.20;99.90
18934;DHT22;9599;53.706;10.384;2022-11-20T15:56:44;3.10;99.90
18934;DHT22;9599;53.706;10.384;2022-11-20T15:59:12;3.10;99.90
18934;DHT22;9599;53.706;10.384;2022-11-20T16:01:41;3.20;99.90
18934;DHT22;9599;53.706;10.384;2022-11-20T16:04:10;3.20;99.90
18934;DHT22;9599;53.706;10.384;2022-11-20T16:06:40;3.20;99.90
18934;DHT22;9599;53.706;10.384;2022-11-20T16:09:08;3.20;99.90
18934;DHT22;9599;53.706;10.384;2022-11-20T16:11:36;3.20;99.90
18934;DHT22;9599;53.706;10.384;2022-11-20T16:14:04;3.10;99.90
18934;DHT22;9599;53.706;10.384;2022-11-20T16:16:51;3.20;99.90
18934;DHT22;9599;53.706;10.384;2022-11-20T16:19:19;3.20;99.90
18934;DHT22;9599;53.706;10.384;2022-11-20T16:21:48;3.20;99.90